Time;durP1;ratioP1;P1;durP2;ratioP2;P2;SDS_P1;SDS_P2;PMS_P1;PMS_P2;Temp;Humidity;BMP_temperature;BMP_pressure;BME280_temperature;BME280_humidity;BME280_pressure;Samples;Min_cycle;Max_cycle;Signal;HPM_P1;HPM_P2
2021/09/05 00:00:42;;;;;;;16.30;12.73;;;22.70;96.30;;;;;;5112425;27;20072;-76
2021/09/05 00:03:08;;;;;;;15.70;12.80;;;22.70;96.40;;;;;;5110869;28;20023;-76
2021/09/05 00:05:33;;;;;;;13.07;11.65;;;22.70;96.40;;;;;;5113113;28;20092;-76
2021/09/05 00:07:59;;;;;;;16.20;11.95;;;22.70;96.40;;;;;;5112386;28;20031;-77
2021/09/05 00:10:25;;;;;;;13.40;11.73;;;22.70;96.50;;;;;;5112871;28;20455;-76
2021/09/05 00:12:50;;;;;;;15.93;11.93;;;22.70;96.40;;;;;;5112663;28;20015;-76
2021/09/05 00:15:16;;;;;;;16.55;12.88;;;22.70;96.40;;;;;;5112846;28;20482;-77
2021/09/05 00:17:42;;;;;;;15.05;12.30;;;22.70;96.50;;;;;;5111970;28;20024;-76
2021/09/05 00:20:08;;;;;;;15.43;12.52;;;22.70;96.50;;;;;;5112745;28;20498;-76
2021/09/05 00:22:34;;;;;;;15.25;12.50;;;22.70;96.60;;;;;;5112785;28;20020;-76
2021/09/05 00:25:00;;;;;;;13.32;11.93;;;22.70;96.60;;;;;;5112260;28;20122;-76
2021/09/05 00:27:26;;;;;;;16.80;12.98;;;22.70;96.60;;;;;;5111190;28;20024;-76
2021/09/05 00:29:51;;;;;;;15.23;12.70;;;22.70;96.60;;;;;;5112348;28;20027;-76
2021/09/05 00:32:17;;;;;;;15.10;13.20;;;22.70;96.60;;;;;;5111178;28;20399;-76
2021/09/05 00:34:43;;;;;;;14.05;11.85;;;22.60;96.60;;;;;;5111989;28;20050;-77
2021/09/05 00:37:08;;;;;;;15.15;12.77;;;22.60;96.60;;;;;;5112480;28;20024;-76
2021/09/05 00:39:34;;;;;;;14.15;12.00;;;22.60;96.60;;;;;;5112789;28;20098;-77
2021/09/05 00:41:59;;;;;;;14.43;12.13;;;22.60;96.60;;;;;;5111647;28;20142;-76
2021/09/05 00:44:25;;;;;;;16.52;12.05;;;22.60;96.50;;;;;;5111411;28;20411;-77
2021/09/05 00:46:51;;;;;;;15.82;12.13;;;22.60;96.50;;;;;;5111616;28;20016;-77
2021/09/05 00:49:17;;;;;;;14.63;11.85;;;22.60;96.50;;;;;;5112198;28;20023;-77
2021/09/05 00:51:43;;;;;;;16.05;13.13;;;22.60;96.50;;;;;;5111592;28;20096;-77
2021/09/05 00:54:12;;;;;;;14.63;11.57;;;22.60;96.50;;;;;;5110461;28;20031;-77
2021/09/05 00:56:39;;;;;;;13.55;11.57;;;22.60;96.50;;;;;;5111546;28;20501;-78
2021/09/05 00:59:07;;;;;;;13.57;11.90;;;22.60;96.50;;;;;;5112218;28;20023;-78
2021/09/05 01:01:36;;;;;;;16.35;11.93;;;22.60;96.50;;;;;;5111767;28;20491;-77
2021/09/05 01:04:03;;;;;;;16.58;12.88;;;22.60;96.50;;;;;;5110668;28;20023;-78
2021/09/05 01:06:29;;;;;;;14.70;12.07;;;22.50;96.50;;;;;;5112233;28;20387;-77
2021/09/05 01:08:57;;;;;;;13.98;11.50;;;22.50;96.50;;;;;;5093461;28;20077;-77
2021/09/05 01:11:24;;;;;;;14.23;11.25;;;22.50;96.50;;;;;;5111506;28;20066;-77
2021/09/05 01:13:50;;;;;;;14.23;11.70;;;22.50;96.50;;;;;;5111667;28;20033;-78
2021/09/05 01:16:27;;;;;;;12.98;11.38;;;22.50;96.50;;;;;;5111518;28;20020;-78
2021/09/05 01:18:53;;;;;;;13.68;11.52;;;22.50;96.50;;;;;;5110253;28;20043;-78
2021/09/05 01:21:20;;;;;;;15.88;12.65;;;22.50;96.40;;;;;;5110942;28;20027;-78
2021/09/05 01:23:46;;;;;;;15.18;12.10;;;22.50;96.50;;;;;;5110166;28;20027;-78
2021/09/05 01:26:12;;;;;;;14.90;12.13;;;22.50;96.50;;;;;;5110027;28;20040;-77
2021/09/05 01:28:41;;;;;;;13.77;11.30;;;22.50;96.50;;;;;;5111210;28;20031;-77
2021/09/05 01:31:07;;;;;;;14.77;12.30;;;22.50;96.40;;;;;;5111030;28;20039;-77
2021/09/05 01:33:33;;;;;;;15.00;12.25;;;22.50;96.40;;;;;;5111104;28;20016;-77
2021/09/05 01:35:58;;;;;;;14.85;13.00;;;22.50;96.40;;;;;;5109619;28;20032;-77
2021/09/05 01:38:24;;;;;;;17.67;12.10;;;22.50;96.30;;;;;;5110351;28;20012;-77
2021/09/05 01:40:50;;;;;;;16.00;11.55;;;22.50;96.50;;;;;;5110740;28;20062;-77
2021/09/05 01:43:15;;;;;;;14.02;11.60;;;22.50;96.40;;;;;;5111616;28;20144;-77
2021/09/05 01:45:41;;;;;;;14.18;12.50;;;22.40;96.30;;;;;;5111216;28;20067;-77
2021/09/05 01:48:07;;;;;;;16.02;12.88;;;22.40;96.30;;;;;;5110817;28;20020;-76
2021/09/05 01:50:32;;;;;;;14.75;11.93;;;22.40;96.30;;;;;;5110485;28;20028;-76
2021/09/05 01:52:58;;;;;;;15.57;13.05;;;22.40;96.40;;;;;;5110912;28;20095;-76
2021/09/05 01:55:23;;;;;;;14.73;12.35;;;22.40;96.30;;;;;;5110508;28;20089;-76
2021/09/05 01:57:49;;;;;;;15.02;11.93;;;22.40;96.30;;;;;;5111053;28;20493;-76
2021/09/05 02:00:15;;;;;;;16.10;12.85;;;22.40;96.30;;;;;;5110731;28;20040;-76
2021/09/05 02:02:41;;;;;;;15.02;12.15;;;22.40;96.30;;;;;;5109718;28;20034;-77
2021/09/05 02:05:07;;;;;;;17.17;12.80;;;22.40;96.40;;;;;;5111237;28;20031;-77
2021/09/05 02:07:33;;;;;;;14.35;11.68;;;22.40;96.40;;;;;;5114343;28;20094;-77
2021/09/05 02:09:58;;;;;;;16.00;13.00;;;22.40;96.30;;;;;;5115040;28;20431;-77
2021/09/05 02:12:24;;;;;;;15.18;13.38;;;22.40;96.30;;;;;;5115227;28;20020;-77
2021/09/05 02:14:50;;;;;;;16.27;12.63;;;22.40;96.40;;;;;;5114466;28;20452;-77
2021/09/05 02:17:15;;;;;;;15.23;12.73;;;22.40;96.30;;;;;;5115086;28;20115;-78
2021/09/05 02:19:41;;;;;;;15.05;12.38;;;22.30;96.30;;;;;;5114510;28;20032;-79
2021/09/05 02:22:07;;;;;;;16.10;12.73;;;22.30;96.20;;;;;;5115058;28;20023;-78
2021/09/05 02:24:32;;;;;;;15.10;12.65;;;22.30;96.20;;;;;;5114979;28;20032;-78
2021/09/05 02:26:59;;;;;;;13.80;12.05;;;22.30;96.20;;;;;;5113826;28;20027;-77
2021/09/05 02:29:24;;;;;;;14.30;11.60;;;22.30;96.20;;;;;;5114983;28;20047;-78
2021/09/05 02:31:53;;;;;;;15.00;11.85;;;22.30;96.10;;;;;;5113948;28;20471;-77
2021/09/05 02:34:19;;;;;;;14.77;13.07;;;22.30;96.10;;;;;;5114024;28;20062;-76
2021/09/05 02:36:46;;;;;;;14.38;12.10;;;22.30;96.00;;;;;;5114335;28;20395;-77
2021/09/05 02:39:12;;;;;;;14.32;11.65;;;22.30;96.20;;;;;;5114620;28;20023;-76
2021/09/05 02:41:38;;;;;;;14.88;12.50;;;22.30;96.10;;;;;;5114287;28;20026;-77
2021/09/05 02:44:03;;;;;;;12.95;11.18;;;22.20;96.10;;;;;;5114541;27;20107;-77
2021/09/05 02:46:29;;;;;;;15.02;12.77;;;22.30;96.10;;;;;;5114343;28;20032;-77
2021/09/05 02:48:55;;;;;;;15.68;11.95;;;22.30;96.00;;;;;;5114375;28;20020;-77
2021/09/05 02:51:20;;;;;;;16.50;12.18;;;22.20;96.10;;;;;;5114231;28;20028;-77
2021/09/05 02:53:46;;;;;;;14.63;11.90;;;22.30;96.10;;;;;;5112979;28;20028;-77
2021/09/05 02:56:12;;;;;;;14.93;12.45;;;22.20;96.10;;;;;;5113265;28;20101;-77
2021/09/05 02:58:39;;;;;;;15.13;12.43;;;22.20;96.00;;;;;;5114561;28;20471;-78
2021/09/05 03:01:05;;;;;;;15.40;13.00;;;22.20;96.00;;;;;;5113298;28;20020;-77
2021/09/05 03:03:31;;;;;;;16.08;12.63;;;22.20;96.10;;;;;;5111177;28;20523;-77
2021/09/05 03:05:57;;;;;;;16.63;13.23;;;22.20;96.00;;;;;;5113824;28;20108;-77
2021/09/05 03:08:22;;;;;;;15.70;13.13;;;22.20;95.90;;;;;;5113736;28;20399;-77
2021/09/05 03:10:48;;;;;;;15.50;12.80;;;22.20;96.00;;;;;;5113809;28;20048;-77
2021/09/05 03:13:14;;;;;;;14.43;12.55;;;22.20;96.00;;;;;;5112852;28;20100;-77
2021/09/05 03:15:40;;;;;;;14.43;11.80;;;22.20;96.00;;;;;;5113805;28;20512;-77
2021/09/05 03:18:05;;;;;;;15.50;12.70;;;22.20;96.00;;;;;;5114050;28;20027;-77
2021/09/05 03:20:31;;;;;;;15.02;12.52;;;22.20;96.00;;;;;;5113143;28;20094;-77
2021/09/05 03:22:56;;;;;;;16.10;12.70;;;22.20;96.00;;;;;;5113669;28;20023;-77
2021/09/05 03:25:22;;;;;;;17.00;13.32;;;22.20;96.00;;;;;;5113505;28;20116;-77
2021/09/05 03:27:48;;;;;;;16.30;13.05;;;22.20;96.00;;;;;;5113655;28;20020;-77
2021/09/05 03:30:13;;;;;;;14.23;12.18;;;22.20;96.00;;;;;;5112941;28;20032;-77
2021/09/05 03:32:39;;;;;;;16.88;13.02;;;22.10;95.90;;;;;;5114137;28;20019;-77
2021/09/05 03:35:05;;;;;;;14.15;12.32;;;22.10;95.90;;;;;;5113404;28;20032;-77
2021/09/05 03:37:31;;;;;;;15.48;13.05;;;22.10;95.90;;;;;;5113286;28;20063;-76
2021/09/05 03:39:56;;;;;;;15.05;12.63;;;22.10;96.00;;;;;;5113406;28;20024;-77
2021/09/05 03:42:22;;;;;;;17.08;13.13;;;22.10;95.90;;;;;;5113262;28;20494;-76
2021/09/05 03:44:48;;;;;;;14.15;12.23;;;22.10;95.90;;;;;;5113240;28;20074;-77
2021/09/05 03:47:14;;;;;;;14.93;12.52;;;22.10;95.90;;;;;;5112094;28;20023;-77
2021/09/05 03:49:39;;;;;;;15.93;14.00;;;22.10;95.90;;;;;;5113130;28;20467;-77
2021/09/05 03:52:05;;;;;;;16.15;13.93;;;22.10;95.90;;;;;;5093305;28;20045;-78
2021/09/05 03:54:31;;;;;;;14.98;12.70;;;22.10;95.80;;;;;;5091754;28;20028;-78
2021/09/05 03:56:56;;;;;;;16.55;13.25;;;22.10;95.80;;;;;;5109235;28;20028;-78
2021/09/05 03:59:23;;;;;;;16.15;12.68;;;22.10;95.80;;;;;;5113029;28;20494;-77
2021/09/05 04:01:48;;;;;;;15.35;12.45;;;22.10;95.80;;;;;;5112207;28;20028;-77
2021/09/05 04:04:14;;;;;;;13.98;11.88;;;22.10;95.80;;;;;;5112871;28;20039;-77
2021/09/05 04:06:40;;;;;;;16.25;12.45;;;22.10;95.80;;;;;;5112382;28;20560;-77
2021/09/05 04:09:09;;;;;;;16.83;13.32;;;22.10;95.70;;;;;;5112978;28;21555;-77
2021/09/05 04:11:36;;;;;;;16.05;13.23;;;22.10;95.70;;;;;;5112611;28;20058;-77
2021/09/05 04:14:02;;;;;;;16.98;13.85;;;22.10;95.70;;;;;;5112598;28;20027;-77
2021/09/05 04:16:28;;;;;;;14.93;13.23;;;22.10;95.70;;;;;;5112078;28;20055;-77
2021/09/05 04:18:54;;;;;;;17.13;14.35;;;22.00;95.70;;;;;;5112395;28;20063;-77
2021/09/05 04:21:19;;;;;;;15.98;12.98;;;22.00;95.70;;;;;;5112555;28;20024;-78
2021/09/05 04:23:45;;;;;;;14.93;12.20;;;22.00;95.60;;;;;;5112440;28;20012;-78
2021/09/05 04:26:10;;;;;;;15.43;13.52;;;22.00;95.60;;;;;;5112394;28;20042;-78
2021/09/05 04:28:36;;;;;;;14.98;13.07;;;22.00;95.60;;;;;;5112319;27;20019;-78
2021/09/05 04:31:02;;;;;;;19.02;13.55;;;22.00;95.60;;;;;;5111970;28;20449;-77
2021/09/05 04:33:27;;;;;;;15.85;14.15;;;22.00;95.50;;;;;;5111772;28;20031;-77
2021/09/05 04:35:53;;;;;;;16.75;13.98;;;22.00;95.50;;;;;;5110639;28;20032;-78
2021/09/05 04:38:19;;;;;;;14.45;12.82;;;22.00;95.50;;;;;;5112634;28;20125;-78
2021/09/05 04:40:44;;;;;;;14.13;12.48;;;22.00;95.50;;;;;;5111864;28;20403;-77
2021/09/05 04:43:10;;;;;;;15.88;12.38;;;22.00;95.50;;;;;;5111887;28;20069;-77
2021/09/05 04:45:36;;;;;;;15.02;12.63;;;21.90;95.40;;;;;;5111957;28;20031;-78
2021/09/05 04:48:01;;;;;;;16.05;13.52;;;22.00;95.40;;;;;;5110351;28;20022;-77
2021/09/05 04:50:27;;;;;;;16.42;13.65;;;22.00;95.40;;;;;;5112340;28;20023;-78
2021/09/05 04:52:53;;;;;;;16.50;13.50;;;21.90;95.40;;;;;;5111918;28;20024;-78
2021/09/05 04:55:18;;;;;;;17.35;13.32;;;22.00;95.40;;;;;;5109977;28;20032;-77
2021/09/05 04:57:44;;;;;;;14.55;12.55;;;22.00;95.40;;;;;;5111585;28;20023;-77
2021/09/05 05:00:10;;;;;;;15.20;13.02;;;22.00;95.40;;;;;;5111980;28;20031;-78
2021/09/05 05:02:36;;;;;;;16.13;13.20;;;21.90;95.30;;;;;;5112356;28;20460;-78
2021/09/05 05:05:01;;;;;;;15.82;13.20;;;21.90;95.30;;;;;;5111437;27;20118;-77
2021/09/05 05:07:27;;;;;;;16.52;13.85;;;22.00;95.30;;;;;;5110201;28;20027;-77
2021/09/05 05:09:54;;;;;;;15.18;12.57;;;21.90;95.20;;;;;;5111065;28;20035;-77
2021/09/05 05:12:20;;;;;;;15.90;13.18;;;21.90;95.20;;;;;;5111888;28;20019;-77
2021/09/05 05:14:46;;;;;;;18.13;12.52;;;21.90;95.20;;;;;;5111338;28;20046;-77
2021/09/05 05:17:12;;;;;;;15.93;13.23;;;21.90;95.10;;;;;;5110825;28;20028;-78
2021/09/05 05:19:37;;;;;;;17.45;13.35;;;21.90;95.10;;;;;;5110377;28;20540;-78
2021/09/05 05:22:04;;;;;;;16.38;14.63;;;21.90;95.10;;;;;;5111430;28;20023;-78
2021/09/05 05:24:29;;;;;;;15.50;12.50;;;21.90;95.10;;;;;;5111453;28;20024;-77
2021/09/05 05:26:56;;;;;;;15.90;13.63;;;21.90;95.10;;;;;;5111525;28;20072;-77
2021/09/05 05:29:21;;;;;;;17.20;13.55;;;21.90;95.10;;;;;;5111724;28;20436;-77
2021/09/05 05:31:47;;;;;;;16.52;13.65;;;21.90;95.10;;;;;;5110927;28;20111;-77
2021/09/05 05:34:12;;;;;;;17.90;13.77;;;21.90;95.10;;;;;;5111230;28;20430;-77
2021/09/05 05:36:38;;;;;;;15.07;13.30;;;21.90;95.10;;;;;;5110183;28;20059;-77
2021/09/05 05:39:04;;;;;;;17.02;13.95;;;21.90;95.10;;;;;;5111512;28;20015;-77
2021/09/05 05:41:29;;;;;;;16.13;13.77;;;21.90;95.10;;;;;;5113825;28;20062;-77
2021/09/05 05:43:55;;;;;;;18.35;13.48;;;21.80;95.00;;;;;;5115241;28;20036;-77
2021/09/05 05:46:20;;;;;;;17.75;13.68;;;21.80;95.00;;;;;;5114916;28;20039;-76
2021/09/05 05:48:46;;;;;;;15.65;13.43;;;21.80;95.00;;;;;;5114897;28;20016;-77
2021/09/05 05:51:12;;;;;;;15.15;13.55;;;21.90;95.00;;;;;;5115936;28;20043;-76
2021/09/05 05:53:37;;;;;;;16.65;12.73;;;21.80;95.00;;;;;;5116008;28;20030;-77
2021/09/05 05:56:03;;;;;;;16.20;13.02;;;21.80;95.00;;;;;;5115041;28;20080;-77
2021/09/05 05:58:29;;;;;;;16.85;13.43;;;21.80;94.90;;;;;;5115718;28;20020;-77
2021/09/05 06:00:55;;;;;;;17.60;14.27;;;21.80;95.00;;;;;;5114686;28;20115;-78
2021/09/05 06:03:23;;;;;;;16.58;13.18;;;21.80;94.90;;;;;;5113766;28;20106;-78
2021/09/05 06:05:49;;;;;;;16.15;12.85;;;21.80;94.90;;;;;;5115208;27;20525;-78
2021/09/05 06:08:14;;;;;;;16.98;13.73;;;21.80;94.90;;;;;;5115449;28;20047;-78
2021/09/05 06:10:40;;;;;;;15.32;12.98;;;21.80;94.90;;;;;;5114782;28;20036;-77
2021/09/05 06:13:06;;;;;;;16.70;13.90;;;21.80;94.90;;;;;;5115490;28;20047;-77
2021/09/05 06:15:32;;;;;;;15.15;12.93;;;21.80;94.90;;;;;;5114899;28;20035;-77
2021/09/05 06:17:58;;;;;;;14.60;12.18;;;21.80;94.90;;;;;;5113998;28;20098;-77
2021/09/05 06:20:23;;;;;;;16.95;13.18;;;21.80;94.80;;;;;;5114815;28;20055;-77
2021/09/05 06:22:49;;;;;;;16.33;12.57;;;21.80;94.70;;;;;;5114945;28;20019;-76
2021/09/05 06:25:16;;;;;;;14.93;12.75;;;21.80;94.70;;;;;;5114642;28;20031;-77
2021/09/05 06:27:42;;;;;;;15.23;13.10;;;21.80;94.70;;;;;;5114572;28;20023;-76
2021/09/05 06:30:09;;;;;;;16.75;14.27;;;21.80;94.70;;;;;;5114662;28;20038;-77
2021/09/05 06:32:34;;;;;;;15.57;13.73;;;21.80;94.70;;;;;;5114322;28;20499;-76
2021/09/05 06:35:00;;;;;;;16.35;13.02;;;21.80;94.70;;;;;;5114484;28;20066;-77
2021/09/05 06:37:25;;;;;;;18.92;14.27;;;21.80;94.70;;;;;;5114798;28;20035;-77
2021/09/05 06:39:51;;;;;;;15.02;13.18;;;21.80;94.70;;;;;;5114229;28;20058;-76
2021/09/05 06:42:17;;;;;;;15.82;13.75;;;21.80;94.70;;;;;;5114443;28;20028;-77
2021/09/05 06:44:43;;;;;;;15.38;12.85;;;21.80;95.00;;;;;;5114159;28;20039;-77
2021/09/05 06:47:08;;;;;;;14.93;12.43;;;21.80;94.70;;;;;;5114085;28;20391;-76
2021/09/05 06:49:34;;;;;;;15.02;12.90;;;21.80;94.70;;;;;;5114095;28;20023;-76
2021/09/05 06:52:00;;;;;;;17.17;14.25;;;21.80;94.70;;;;;;5113481;28;20434;-76
2021/09/05 06:54:26;;;;;;;14.98;12.63;;;21.80;94.70;;;;;;5114332;28;20054;-75
2021/09/05 06:56:51;;;;;;;16.65;13.38;;;21.80;94.70;;;;;;5104372;28;20024;-76
2021/09/05 06:59:17;;;;;;;16.33;13.30;;;21.80;94.70;;;;;;5112415;27;20047;-76
2021/09/05 07:01:43;;;;;;;17.00;12.60;;;21.80;94.90;;;;;;5111324;27;20100;-75
2021/09/05 07:04:08;;;;;;;18.00;14.35;;;21.80;94.90;;;;;;5112571;28;20035;-76
2021/09/05 07:06:34;;;;;;;19.48;15.57;;;21.80;94.80;;;;;;5114154;28;20528;-76
2021/09/05 07:09:00;;;;;;;19.40;13.27;;;21.80;94.80;;;;;;5112726;28;20042;-75
2021/09/05 07:11:26;;;;;;;19.88;13.82;;;21.80;94.80;;;;;;5112624;28;20513;-75
2021/09/05 07:13:52;;;;;;;19.90;15.32;;;21.90;94.80;;;;;;5112534;28;20467;-75
2021/09/05 07:16:18;;;;;;;18.55;14.00;;;21.90;94.80;;;;;;5113466;28;20024;-75
2021/09/05 07:18:43;;;;;;;17.90;13.77;;;21.90;94.80;;;;;;5113557;27;20107;-77
2021/09/05 07:21:09;;;;;;;16.55;14.63;;;21.80;94.70;;;;;;5112622;28;20030;-76
2021/09/05 07:23:35;;;;;;;17.02;13.57;;;21.90;94.80;;;;;;5114055;28;20032;-75
2021/09/05 07:26:03;;;;;;;15.93;12.60;;;21.90;94.80;;;;;;5113503;28;20085;-76
2021/09/05 07:28:32;;;;;;;17.77;14.13;;;21.90;94.80;;;;;;5113259;28;20065;-76
2021/09/05 07:31:00;;;;;;;16.20;13.40;;;21.90;94.80;;;;;;5112394;28;20115;-76
2021/09/05 07:33:26;;;;;;;19.42;12.65;;;21.90;94.80;;;;;;5110626;28;20454;-76
2021/09/05 07:35:51;;;;;;;17.27;12.73;;;21.90;95.00;;;;;;5113811;28;20047;-75
2021/09/05 07:38:17;;;;;;;25.08;15.55;;;22.00;94.90;;;;;;5114559;28;20453;-75
2021/09/05 07:40:42;;;;;;;23.40;16.95;;;22.00;95.00;;;;;;5109770;28;20520;-77
2021/09/05 07:43:08;;;;;;;21.58;16.60;;;22.00;95.10;;;;;;5112177;28;20403;-78
2021/09/05 07:45:34;;;;;;;25.77;18.13;;;22.00;95.20;;;;;;5111558;28;20474;-78
2021/09/05 07:48:00;;;;;;;25.95;19.60;;;22.00;95.30;;;;;;5111209;28;20487;-77
2021/09/05 07:50:26;;;;;;;30.88;21.67;;;21.90;95.40;;;;;;5111773;28;20027;-77
2021/09/05 07:52:51;;;;;;;28.25;20.67;;;22.00;95.40;;;;;;5112354;28;20023;-77
2021/09/05 07:55:17;;;;;;;27.95;20.23;;;22.00;95.50;;;;;;5113230;28;20022;-78
2021/09/05 07:57:43;;;;;;;27.70;20.27;;;22.00;95.50;;;;;;5112146;27;20031;-77
2021/09/05 08:00:09;;;;;;;31.60;22.58;;;22.00;95.60;;;;;;5112051;28;20019;-78
2021/09/05 08:02:34;;;;;;;31.13;22.13;;;22.00;95.70;;;;;;5096427;28;20031;-75
2021/09/05 08:05:00;;;;;;;31.88;22.88;;;22.00;95.80;;;;;;5111309;28;20023;-77
2021/09/05 08:07:26;;;;;;;37.20;26.05;;;22.00;96.00;;;;;;5110984;28;20043;-78
2021/09/05 08:09:52;;;;;;;31.95;23.33;;;22.00;95.90;;;;;;5111389;28;20015;-78
2021/09/05 08:12:18;;;;;;;35.15;21.73;;;22.00;96.00;;;;;;5112043;28;20032;-77
2021/09/05 08:14:43;;;;;;;33.05;22.20;;;22.00;96.00;;;;;;5112376;28;20057;-77
2021/09/05 08:17:09;;;;;;;30.48;21.92;;;22.10;96.20;;;;;;5113217;28;20032;-78
2021/09/05 08:19:34;;;;;;;29.38;21.58;;;22.10;95.70;;;;;;5112552;28;20028;-81
2021/09/05 08:22:00;;;;;;;30.25;20.23;;;22.10;95.80;;;;;;5111938;28;20028;-76
2021/09/05 08:24:26;;;;;;;34.72;23.52;;;22.10;95.80;;;;;;5112626;28;20467;-78
2021/09/05 08:26:51;;;;;;;56.95;38.78;;;22.10;96.00;;;;;;5112424;28;20048;-78
2021/09/05 08:29:17;;;;;;;65.82;41.15;;;22.00;97.80;;;;;;5112590;28;20020;-79
2021/09/05 08:31:42;;;;;;;65.47;40.85;;;21.90;98.50;;;;;;5112012;28;20053;-78
2021/09/05 08:34:08;;;;;;;67.40;43.42;;;21.80;99.40;;;;;;5111164;28;20388;-78
2021/09/05 08:36:34;;;;;;;71.55;46.42;;;21.90;99.90;;;;;;5110566;28;20027;-78
2021/09/05 08:38:59;;;;;;;71.60;46.58;;;21.80;99.90;;;;;;5110677;28;20027;-79
2021/09/05 08:41:26;;;;;;;73.70;46.05;;;21.80;99.90;;;;;;5109458;28;20019;-77
2021/09/05 08:43:52;;;;;;;70.57;46.70;;;21.80;99.90;;;;;;5110198;28;20026;-78
2021/09/05 08:46:17;;;;;;;75.75;47.80;;;21.90;99.90;;;;;;5111158;28;20028;-80
2021/09/05 08:48:46;;;;;;;70.82;46.85;;;21.90;99.90;;;;;;5111676;28;20047;-78
2021/09/05 08:51:11;;;;;;;71.60;47.05;;;21.90;99.90;;;;;;5111690;28;20031;-77
2021/09/05 08:53:37;;;;;;;70.30;45.03;;;21.90;99.90;;;;;;5112455;28;20019;-78
2021/09/05 08:56:03;;;;;;;73.35;46.13;;;22.00;99.90;;;;;;5112466;27;20506;-77
2021/09/05 08:58:29;;;;;;;72.90;47.92;;;22.00;99.90;;;;;;5112079;28;20020;-78
2021/09/05 09:00:54;;;;;;;74.70;49.30;;;22.00;99.90;;;;;;5111819;28;20106;-79
2021/09/05 09:03:22;;;;;;;67.85;46.35;;;22.10;99.90;;;;;;5112049;28;20023;-79
2021/09/05 09:05:56;;;;;;;67.78;44.47;;;22.10;99.90;;;;;;5110281;28;20039;-79
2021/09/05 09:08:23;;;;;;;73.13;45.45;;;22.10;99.90;;;;;;5110451;28;20020;-80
2021/09/05 09:10:52;;;;;;;74.30;45.55;;;22.00;99.90;;;;;;5111513;28;20032;-79
2021/09/05 09:13:27;;;;;;;69.78;46.78;;;22.00;99.90;;;;;;5110092;28;20494;-79
2021/09/05 09:15:54;;;;;;;68.03;43.72;;;22.00;99.90;;;;;;5109487;28;20028;-81
2021/09/05 09:18:28;;;;;;;69.10;45.58;;;22.10;99.90;;;;;;5111294;28;20088;-80
2021/09/05 09:20:55;;;;;;;68.00;44.13;;;22.10;99.90;;;;;;5110628;28;20487;-81
2021/09/05 09:23:24;;;;;;;63.25;41.42;;;22.10;99.90;;;;;;5110914;28;20027;-81
2021/09/05 09:26:07;;;;;;;71.10;45.60;;;22.10;99.90;;;;;;5111604;28;20067;-80
2021/09/05 09:28:44;;;;;;;68.68;43.88;;;22.10;99.90;;;;;;5111585;28;20471;-79
2021/09/05 09:31:18;;;;;;;71.60;44.95;;;22.20;99.90;;;;;;5111085;28;20138;-80
2021/09/05 09:33:46;;;;;;;64.35;43.10;;;22.20;99.90;;;;;;5111224;28;20020;-81
2021/09/05 09:36:18;;;;;;;68.22;42.83;;;22.20;99.90;;;;;;5111187;28;20056;-80
2021/09/05 09:38:55;;;;;;;64.10;42.58;;;22.20;99.90;;;;;;5107378;28;20083;-80
2021/09/05 09:41:20;;;;;;;59.55;41.25;;;22.30;99.90;;;;;;5090788;28;20032;-79
2021/09/05 09:43:55;;;;;;;60.72;40.28;;;22.30;99.90;;;;;;5089664;28;20069;-80
2021/09/05 09:46:26;;;;;;;54.88;37.42;;;22.30;99.90;;;;;;5110485;28;20160;-80
2021/09/05 09:48:57;;;;;;;56.38;38.38;;;22.40;99.90;;;;;;5111285;28;20099;-80
2021/09/05 09:51:24;;;;;;;58.83;38.65;;;22.40;99.90;;;;;;5111481;28;20039;-80
2021/09/05 09:53:51;;;;;;;52.67;35.45;;;22.40;99.90;;;;;;5109979;28;20024;-81
2021/09/05 09:56:17;;;;;;;53.35;37.85;;;22.50;99.90;;;;;;5111603;28;20111;-79
2021/09/05 09:58:50;;;;;;;56.83;40.13;;;22.50;99.90;;;;;;5110767;28;20035;-80
2021/09/05 10:01:19;;;;;;;56.63;36.55;;;22.60;99.90;;;;;;5109824;28;20459;-79
2021/09/05 10:03:57;;;;;;;56.10;37.05;;;22.60;99.90;;;;;;5110753;28;20391;-80
2021/09/05 10:06:27;;;;;;;55.03;36.13;;;22.70;99.90;;;;;;5111268;28;20027;-80
2021/09/05 10:09:07;;;;;;;50.67;36.83;;;22.70;99.90;;;;;;5110909;28;20099;-79
2021/09/05 10:11:34;;;;;;;51.78;34.90;;;22.70;99.90;;;;;;5110964;28;20030;-80
2021/09/05 10:14:00;;;;;;;47.42;34.00;;;22.70;99.90;;;;;;5109591;28;20732;-81
2021/09/05 10:16:26;;;;;;;56.10;35.17;;;22.80;99.90;;;;;;5110132;28;20391;-79
2021/09/05 10:18:56;;;;;;;56.38;36.17;;;22.80;99.90;;;;;;5110875;28;20019;-78
2021/09/05 10:21:22;;;;;;;50.53;34.20;;;22.80;99.90;;;;;;5111205;28;20019;-79
2021/09/05 10:23:54;;;;;;;52.55;34.95;;;22.80;99.90;;;;;;5110700;28;20028;-81
2021/09/05 10:26:20;;;;;;;50.58;34.13;;;22.80;99.90;;;;;;5111142;28;20096;-78
2021/09/05 10:28:48;;;;;;;45.53;32.33;;;22.80;99.90;;;;;;5112752;28;20023;-79
2021/09/05 10:31:29;;;;;;;46.05;30.92;;;22.90;99.90;;;;;;5114309;28;20036;-77
2021/09/05 10:33:57;;;;;;;45.67;29.95;;;22.90;99.90;;;;;;5114535;28;20110;-79
2021/09/05 10:36:25;;;;;;;51.55;33.70;;;22.90;99.90;;;;;;5114732;28;20038;-80
2021/09/05 10:38:52;;;;;;;47.65;31.65;;;22.90;99.90;;;;;;5114479;28;20065;-82
2021/09/05 10:41:21;;;;;;;47.03;31.90;;;23.00;99.90;;;;;;5114345;28;20118;-78
2021/09/05 10:43:49;;;;;;;44.17;30.10;;;23.00;99.90;;;;;;5114463;28;20020;-78
2021/09/05 10:46:16;;;;;;;42.08;27.85;;;23.00;99.90;;;;;;5112866;28;20168;-76
2021/09/05 10:48:47;;;;;;;42.28;29.17;;;23.10;99.90;;;;;;5114453;28;20023;-78
2021/09/05 10:51:14;;;;;;;42.95;28.27;;;23.10;99.90;;;;;;5114348;28;20020;-79
2021/09/05 10:53:50;;;;;;;36.58;27.80;;;23.10;99.90;;;;;;5113574;28;20020;-79
2021/09/05 10:56:39;;;;;;;41.92;27.25;;;23.10;99.90;;;;;;5114346;28;20023;-76
2021/09/05 10:59:11;;;;;;;50.45;28.42;;;23.10;99.90;;;;;;5114581;28;20020;-78
2021/09/05 11:01:46;;;;;;;39.53;26.80;;;23.20;99.90;;;;;;5114200;28;20455;-77
2021/09/05 11:04:12;;;;;;;38.15;26.52;;;23.20;99.90;;;;;;5112164;28;20483;-77
2021/09/05 11:06:50;;;;;;;38.17;25.80;;;23.20;99.90;;;;;;5102136;28;20023;-77
2021/09/05 11:09:22;;;;;;;36.85;26.23;;;23.20;99.90;;;;;;5106004;28;20076;-77
2021/09/05 11:12:23;;;;;;;38.70;27.48;;;23.20;99.90;;;;;;5110780;28;20024;-76
2021/09/05 11:14:50;;;;;;;39.08;27.75;;;23.30;99.90;;;;;;5113085;28;20509;-76
2021/09/05 11:17:20;;;;;;;38.05;25.08;;;23.30;99.90;;;;;;5113193;28;20019;-76
2021/09/05 11:19:50;;;;;;;35.60;24.98;;;23.30;99.90;;;;;;5112845;28;20031;-76
2021/09/05 11:22:22;;;;;;;35.10;24.17;;;23.30;99.90;;;;;;5112690;28;20027;-76
2021/09/05 11:25:14;;;;;;;32.55;24.20;;;23.30;99.90;;;;;;5111954;28;20031;-76
2021/09/05 11:27:54;;;;;;;35.38;25.30;;;23.30;99.90;;;;;;5112205;28;20042;-76
2021/09/05 11:30:22;;;;;;;36.60;25.80;;;23.30;99.90;;;;;;5112564;28;20482;-77
2021/09/05 11:32:48;;;;;;;33.30;24.25;;;23.30;99.90;;;;;;5112422;27;20372;-76
2021/09/05 11:35:14;;;;;;;34.38;24.20;;;23.30;99.90;;;;;;5111422;28;20071;-77
2021/09/05 11:37:43;;;;;;;36.45;25.90;;;23.40;99.90;;;;;;5109081;28;20057;-77
2021/09/05 11:40:15;;;;;;;33.47;24.90;;;23.40;99.90;;;;;;5111628;28;20020;-77
2021/09/05 11:42:47;;;;;;;33.13;23.92;;;23.40;99.90;;;;;;5109223;28;20118;-77
2021/09/05 11:45:14;;;;;;;30.98;23.38;;;23.40;99.90;;;;;;5110874;28;20503;-77
2021/09/05 11:47:43;;;;;;;33.17;23.73;;;23.50;99.90;;;;;;5111774;28;20028;-78
2021/09/05 11:50:13;;;;;;;32.28;22.63;;;23.50;99.90;;;;;;5110396;28;20103;-77
2021/09/05 11:52:42;;;;;;;30.52;21.63;;;23.50;99.90;;;;;;5111297;27;20024;-78
2021/09/05 11:55:14;;;;;;;31.02;22.58;;;23.50;99.90;;;;;;5114867;27;20096;-77
2021/09/05 11:57:57;;;;;;;35.08;24.30;;;23.60;99.90;;;;;;5112086;27;20036;-77
2021/09/05 12:00:27;;;;;;;32.70;24.67;;;23.60;99.90;;;;;;5110123;28;20054;-77
2021/09/05 12:02:53;;;;;;;28.42;22.02;;;23.60;99.90;;;;;;5112013;28;20045;-77
2021/09/05 12:05:19;;;;;;;33.70;22.65;;;23.60;99.90;;;;;;5112015;28;20491;-77
2021/09/05 12:07:45;;;;;;;30.50;23.08;;;23.70;99.90;;;;;;5112070;28;20034;-77
2021/09/05 12:10:19;;;;;;;28.88;22.70;;;23.70;99.90;;;;;;5112165;28;20090;-79
2021/09/05 12:13:09;;;;;;;32.55;22.58;;;23.80;99.90;;;;;;5112095;28;20073;-78
2021/09/05 12:15:37;;;;;;;32.53;23.50;;;23.70;99.90;;;;;;5112363;28;20035;-78
2021/09/05 12:18:22;;;;;;;32.30;22.50;;;23.70;99.90;;;;;;5111517;28;20027;-78
2021/09/05 12:20:57;;;;;;;29.70;20.58;;;23.70;99.90;;;;;;5111700;28;20020;-78
2021/09/05 12:23:32;;;;;;;28.30;22.10;;;23.70;99.90;;;;;;5112113;28;20024;-77
2021/09/05 12:26:01;;;;;;;32.07;23.57;;;23.60;99.90;;;;;;5111507;28;20110;-78
2021/09/05 12:28:26;;;;;;;29.88;22.30;;;23.60;99.90;;;;;;5111924;28;20491;-78